createdAt,value
2019-06-26T00:01:00.474Z,7
2019-06-26T00:06:02.943Z,7
2019-06-26T00:11:05.451Z,7
2019-06-26T00:16:07.819Z,7
2019-06-26T00:21:10.247Z,7
2019-06-26T00:26:12.684Z,8
2019-06-26T00:31:15.190Z,7
2019-06-26T00:36:17.579Z,7
2019-06-26T00:41:20.131Z,8
2019-06-26T00:46:22.454Z,8
2019-06-26T00:51:24.900Z,7
2019-06-26T00:56:27.338Z,7
2019-06-26T01:01:29.826Z,7
2019-06-26T01:06:32.225Z,8
2019-06-26T01:11:34.816Z,8
2019-06-26T01:16:37.129Z,8
2019-06-26T01:21:39.557Z,8
2019-06-26T01:26:42.005Z,8
2019-06-26T01:31:44.448Z,9
2019-06-26T01:36:46.948Z,9
2019-06-26T01:41:49.415Z,10
2019-06-26T01:46:51.774Z,9
2019-06-26T01:51:54.263Z,10
2019-06-26T01:56:56.687Z,10
2019-06-26T02:01:59.135Z,10
2019-06-26T02:07:01.561Z,9
2019-06-26T02:12:04.126Z,10
2019-06-26T02:17:06.458Z,11
2019-06-26T02:22:08.878Z,11
2019-06-26T02:27:11.282Z,11
2019-06-26T02:32:13.769Z,11
2019-06-26T02:37:16.163Z,9
2019-06-26T02:42:18.834Z,10
2019-06-26T02:47:21.139Z,10
2019-06-26T02:52:23.513Z,11
2019-06-26T02:57:25.954Z,10
2019-06-26T03:02:28.432Z,10
2019-06-26T03:07:30.836Z,11
2019-06-26T03:12:33.332Z,12
2019-06-26T03:17:35.714Z,11
2019-06-26T03:22:38.137Z,12
2019-06-26T03:27:40.605Z,11
2019-06-26T03:32:43.102Z,11
2019-06-26T03:37:45.527Z,11
2019-06-26T03:42:48.028Z,13
2019-06-26T03:47:50.382Z,12
2019-06-26T03:52:52.800Z,12
2019-06-26T03:57:55.287Z,13
2019-06-26T04:02:57.680Z,12
2019-06-26T04:08:00.153Z,12
2019-06-26T04:13:02.559Z,12
2019-06-26T04:18:05.270Z,12
2019-06-26T04:23:07.441Z,13
2019-06-26T04:28:09.886Z,13
2019-06-26T04:33:12.347Z,13
2019-06-26T04:38:14.899Z,13
2019-06-26T04:43:17.327Z,13
2019-06-26T04:48:19.742Z,13
2019-06-26T04:53:22.100Z,13
2019-06-26T04:58:24.568Z,12
2019-06-26T05:03:27.019Z,12
2019-06-26T05:08:29.487Z,11
2019-06-26T05:13:31.962Z,11
2019-06-26T05:18:34.491Z,11
2019-06-26T05:23:36.774Z,11
2019-06-26T05:28:39.202Z,10
2019-06-26T05:33:41.651Z,10
2019-06-26T05:38:44.111Z,10
2019-06-26T05:43:46.621Z,10
2019-06-26T05:48:49.013Z,9
2019-06-26T05:53:51.475Z,9
2019-06-26T05:58:53.847Z,9
2019-06-26T06:03:56.521Z,8
2019-06-26T06:08:58.880Z,10
2019-06-26T06:14:01.257Z,9
2019-06-26T06:19:03.684Z,10
2019-06-26T06:24:06.059Z,10
2019-06-26T06:34:11.063Z,8
2019-06-26T06:39:13.375Z,7
2019-06-26T06:44:15.868Z,8
2019-06-26T06:49:18.253Z,6
2019-06-26T06:54:20.939Z,7
2019-06-26T06:59:23.200Z,7
2019-06-26T07:04:25.720Z,5
2019-06-26T07:09:28.041Z,6
2019-06-26T07:14:30.566Z,6
2019-06-26T07:19:32.927Z,5
2019-06-26T07:24:35.367Z,4
2019-06-26T07:29:37.795Z,5
2019-06-26T07:34:40.246Z,4
2019-06-26T07:39:42.723Z,4
2019-06-26T07:44:45.747Z,4
2019-06-26T07:49:47.569Z,4
2019-06-26T07:54:50.061Z,4
2019-06-26T07:59:52.443Z,5
2019-06-26T08:04:54.970Z,5
2019-06-26T08:09:57.335Z,5
2019-06-26T08:14:59.775Z,5
2019-06-26T08:20:02.275Z,5
2019-06-26T08:25:04.662Z,5
2019-06-26T08:30:07.117Z,5
2019-06-26T08:35:09.751Z,5
2019-06-26T08:40:12.052Z,5
2019-06-26T08:45:14.578Z,5
2019-06-26T08:50:16.943Z,5
2019-06-26T08:55:19.376Z,5
2019-06-26T09:00:21.794Z,5
2019-06-26T09:05:24.453Z,6
2019-06-26T09:10:26.654Z,6
2019-06-26T09:15:29.201Z,5
2019-06-26T09:20:31.555Z,6
2019-06-26T09:25:34.002Z,7
2019-06-26T09:30:36.517Z,6
2019-06-26T09:35:38.941Z,5
2019-06-26T09:40:41.295Z,5
2019-06-26T09:45:43.892Z,5
2019-06-26T09:50:46.170Z,6
2019-06-26T09:55:48.662Z,5
2019-06-26T10:00:51.057Z,6
2019-06-26T10:05:53.636Z,5
2019-06-26T10:10:55.926Z,5
2019-06-26T10:16:00.661Z,5
2019-06-26T10:21:00.814Z,5
2019-06-26T10:31:05.723Z,4
2019-06-26T10:36:08.165Z,5
2019-06-26T10:41:10.585Z,5
2019-06-26T10:46:13.030Z,4
2019-06-26T10:51:15.532Z,5
2019-06-26T10:56:17.915Z,4
2019-06-26T11:01:20.807Z,4
2019-06-26T11:06:22.873Z,7
2019-06-26T11:11:25.314Z,5
2019-06-26T11:16:27.813Z,5
2019-06-26T11:21:30.129Z,4
2019-06-26T11:26:32.635Z,5
2019-06-26T11:31:35.082Z,5
2019-06-26T11:36:37.543Z,5
2019-06-26T11:41:39.898Z,5
2019-06-26T11:46:42.342Z,5
2019-06-26T11:51:44.829Z,5
2019-06-26T11:56:47.271Z,5
2019-06-26T12:01:49.674Z,5
2019-06-26T12:06:52.148Z,5
2019-06-26T12:11:54.589Z,5
2019-06-26T12:16:56.995Z,5
2019-06-26T12:21:59.533Z,5
2019-06-26T12:27:01.902Z,5
2019-06-26T12:32:04.390Z,5
2019-06-26T12:37:06.859Z,5
2019-06-26T12:42:09.193Z,5
2019-06-26T12:47:11.677Z,5
2019-06-26T12:52:16.910Z,5
2019-06-26T12:57:16.588Z,4
2019-06-26T13:02:19.019Z,5
2019-06-26T13:07:21.665Z,5
2019-06-26T13:27:31.244Z,6
2019-06-26T13:32:33.801Z,5
2019-06-26T13:37:36.121Z,5
2019-06-26T13:42:38.536Z,5
2019-06-26T13:47:41.007Z,6
2019-06-26T13:52:43.495Z,6
2019-06-26T13:57:45.880Z,5
2019-06-26T14:02:48.479Z,5
2019-06-26T14:07:50.809Z,5
2019-06-26T14:12:53.216Z,5
2019-06-26T14:17:55.678Z,5
2019-06-26T14:22:58.168Z,5
2019-06-26T14:28:00.761Z,5
2019-06-26T14:33:02.977Z,6
2019-06-26T14:38:05.468Z,5
2019-06-26T14:43:08.193Z,5
2019-06-26T14:48:11.354Z,5
2019-06-26T14:53:12.755Z,5
2019-06-26T14:58:15.326Z,5
2019-06-26T15:03:17.637Z,5
2019-06-26T15:08:20.125Z,5
2019-06-26T15:13:22.591Z,5
2019-06-26T15:18:24.979Z,5
2019-06-26T15:23:27.499Z,5
2019-06-26T15:28:29.863Z,5
2019-06-26T15:33:32.307Z,5
2019-06-26T15:38:34.830Z,5
2019-06-26T15:43:37.285Z,6
2019-06-26T15:48:39.636Z,5
2019-06-26T15:53:42.348Z,5
2019-06-26T15:58:44.551Z,6
2019-06-26T16:03:46.953Z,5
2019-06-26T16:08:49.391Z,6
2019-06-26T16:13:52.221Z,6
2019-06-26T16:23:56.873Z,9
2019-06-26T16:28:59.332Z,6
2019-06-26T16:34:01.608Z,5
2019-06-26T16:39:04.058Z,5
2019-06-26T16:44:06.529Z,5
2019-06-26T16:49:09.218Z,6
2019-06-26T16:54:11.431Z,6
2019-06-26T16:59:13.836Z,5
2019-06-26T17:04:16.258Z,5
2019-06-26T17:09:18.747Z,5
2019-06-26T17:14:21.258Z,5
2019-06-26T17:19:23.590Z,5
2019-06-26T17:24:26.042Z,5
2019-06-26T17:29:28.516Z,6
2019-06-26T17:34:30.918Z,6
2019-06-26T17:39:33.419Z,6
2019-06-26T17:44:36.091Z,6
2019-06-26T17:49:38.264Z,5
2019-06-26T17:54:40.684Z,6
2019-06-26T17:59:43.157Z,6
2019-06-26T18:09:48.117Z,5
2019-06-26T18:14:51.041Z,6
2019-06-26T18:19:54.038Z,5
2019-06-26T18:24:55.839Z,6
2019-06-26T18:29:57.791Z,6
2019-06-26T18:35:00.229Z,6
2019-06-26T18:40:02.708Z,6
2019-06-26T18:45:05.128Z,6
2019-06-26T18:50:07.618Z,6
2019-06-26T18:55:10.023Z,6
2019-06-26T19:00:12.639Z,5
2019-06-26T19:10:17.327Z,6
2019-06-26T19:15:19.875Z,6
2019-06-26T19:20:22.461Z,6
2019-06-26T19:25:24.762Z,6
2019-06-26T19:30:27.104Z,6
2019-06-26T19:35:29.563Z,7
2019-06-26T19:40:31.991Z,7
2019-06-26T19:45:34.435Z,7
2019-06-26T19:50:36.870Z,6
2019-06-26T19:55:39.313Z,6
2019-06-26T20:00:41.762Z,6
2019-06-26T20:05:44.239Z,7
2019-06-26T20:10:46.707Z,7
2019-06-26T20:15:49.095Z,7
2019-06-26T20:20:51.613Z,8
2019-06-26T20:25:54.029Z,7
2019-06-26T20:30:56.392Z,8
2019-06-26T20:35:58.834Z,8
2019-06-26T20:41:01.402Z,7
2019-06-26T20:46:03.782Z,7
2019-06-26T20:51:06.198Z,8
2019-06-26T20:56:08.656Z,7
2019-06-26T21:01:11.035Z,7
2019-06-26T21:06:13.501Z,7
2019-06-26T21:11:16.025Z,7
2019-06-26T21:16:18.395Z,8
2019-06-26T21:21:20.829Z,7
2019-06-26T21:26:23.413Z,7
2019-06-26T21:31:25.971Z,7
2019-06-26T21:36:28.150Z,7
2019-06-26T21:41:30.588Z,7
2019-06-26T21:46:33.046Z,8
2019-06-26T21:51:35.469Z,7
2019-06-26T21:56:38.005Z,7
2019-06-26T22:06:44.357Z,7
2019-06-26T22:11:45.358Z,7
2019-06-26T22:16:47.673Z,7
2019-06-26T22:21:50.143Z,7
2019-06-26T22:26:52.578Z,7
2019-06-26T22:31:54.989Z,7
2019-06-26T22:36:57.460Z,7
2019-06-26T22:41:59.889Z,6
2019-06-26T22:47:02.345Z,7
2019-06-26T22:52:04.819Z,6
2019-06-26T22:57:07.225Z,6
2019-06-26T23:02:09.648Z,6
2019-06-26T23:07:12.107Z,7
2019-06-26T23:12:14.703Z,7
2019-06-26T23:17:17.034Z,6
2019-06-26T23:22:19.435Z,6
2019-06-26T23:27:21.862Z,6
2019-06-26T23:32:24.323Z,6
2019-06-26T23:37:26.751Z,5
2019-06-26T23:42:29.281Z,5
2019-06-26T23:47:31.670Z,6
2019-06-26T23:52:34.172Z,5
2019-06-26T23:57:39.525Z,5
